M Y Suncoco — SY7908 — position and weather

sailwx.info

Track history (hours):
 
Tides and Currents Weather Stations Pressure Air Temp Water Temp Dewpoint Dewpoint Depression Visibility Wind Speed Wind Dir Waves Ship Positions

M Y Suncoco

Last reported at 2017-Apr-26 18:37 UTC. Time now 2017-Apr-30 16:55 UTC.
Position N 37°22' E 023°22'.

Length 32 m; draft 2.8 m.

Type: Other ship. MMSI: 239112700.

Date/timePositionNaut miles runAvg speedWind from/ knotsBaromVisibWave heightAir tempDewpointWater temp
2017-Apr-26 18:37N 37°22' E 023°22'111.3
2017-Apr-26 18:30N 37°23' E 023°24'511.1
2017-Apr-26 18:01N 37°24' E 023°31'510.6
2017-Apr-26 17:30N 37°29' E 023°35'611.2
2017-Apr-26 17:00N 37°34' E 023°36'511.0
2017-Apr-26 16:30N 37°40' E 023°37'611.1
2017-Apr-26 16:00N 37°45' E 023°38'511.0
2017-Apr-26 15:30N 37°50' E 023°40'5 9.3
2017-Apr-26 15:00N 37°55' E 023°42'  
Track history (hours):
 
Tides and Currents Weather Stations Pressure Air Temp Water Temp Dewpoint Dewpoint Depression Visibility Wind Speed Wind Dir Waves Ship Positions

M Y Suncoco

Last reported at 2017-Apr-26 18:37 UTC. Time now 2017-Apr-30 16:55 UTC.
Position N 37°22' E 023°22'.

Length 32 m; draft 2.8 m.

Type: Other ship. MMSI: 239112700.

Date/timePositionNaut miles runAvg speedWind from/ knotsBaromVisibWave heightAir tempDewpointWater temp
2017-Apr-26 18:37N 37°22' E 023°22'111.3
2017-Apr-26 18:30N 37°23' E 023°24'511.1
2017-Apr-26 18:01N 37°24' E 023°31'510.6
2017-Apr-26 17:30N 37°29' E 023°35'611.2
2017-Apr-26 17:00N 37°34' E 023°36'511.0
2017-Apr-26 16:30N 37°40' E 023°37'611.1
2017-Apr-26 16:00N 37°45' E 023°38'511.0
2017-Apr-26 15:30N 37°50' E 023°40'5 9.3
2017-Apr-26 15:00N 37°55' E 023°42'  

Dump ship's entire track history